createdAt,value
2018-10-07T00:00:35.634Z,65.22
2018-10-07T00:03:03.880Z,64.58
2018-10-07T00:05:32.104Z,65.00
2018-10-07T00:08:00.339Z,64.81
2018-10-07T00:10:29.423Z,65.45
2018-10-07T00:12:57.556Z,64.72
2018-10-07T00:15:25.711Z,65.63
2018-10-07T00:17:54.001Z,66.29
2018-10-07T00:20:22.237Z,66.64
2018-10-07T00:22:51.117Z,66.74
2018-10-07T00:25:19.263Z,66.96
2018-10-07T00:27:47.510Z,67.41
2018-10-07T00:30:15.693Z,67.19
2018-10-07T00:32:43.827Z,67.38
2018-10-07T00:35:12.044Z,67.59
2018-10-07T00:37:40.348Z,67.77
2018-10-07T00:40:08.567Z,67.90
2018-10-07T00:42:36.851Z,68.30
2018-10-07T00:45:05.079Z,68.64
2018-10-07T00:47:33.291Z,68.40
2018-10-07T00:50:01.516Z,69.65
2018-10-07T00:52:29.846Z,69.88
2018-10-07T00:54:58.047Z,69.55
2018-10-07T00:57:26.264Z,69.66
2018-10-07T00:59:54.506Z,69.64
2018-10-07T01:02:22.806Z,70.20
2018-10-07T01:04:50.907Z,69.95
2018-10-07T01:07:19.307Z,69.46
2018-10-07T01:09:47.571Z,70.07
2018-10-07T01:12:15.713Z,70.46
2018-10-07T01:14:43.879Z,70.22
2018-10-07T01:17:12.061Z,70.47
2018-10-07T01:19:40.373Z,70.48
2018-10-07T01:22:08.577Z,70.47
2018-10-07T01:24:36.975Z,70.55
2018-10-07T01:27:05.235Z,70.68
2018-10-07T01:29:33.605Z,70.92
2018-10-07T01:32:01.967Z,71.30
2018-10-07T01:34:30.100Z,71.36
2018-10-07T01:36:58.397Z,72.12
2018-10-07T01:39:26.810Z,72.33
2018-10-07T01:41:55.141Z,72.67
2018-10-07T01:44:23.941Z,72.47
2018-10-07T01:46:52.177Z,72.17
2018-10-07T01:49:20.671Z,73.19
2018-10-07T01:51:48.849Z,72.86
2018-10-07T01:54:17.016Z,73.03
2018-10-07T01:56:45.188Z,72.96
2018-10-07T01:59:13.403Z,73.31
2018-10-07T02:01:41.578Z,73.01
2018-10-07T02:04:09.752Z,73.09
2018-10-07T02:06:37.920Z,72.52
2018-10-07T02:09:09.060Z,73.19
2018-10-07T02:11:37.232Z,73.87
2018-10-07T02:14:05.548Z,73.39
2018-10-07T02:16:33.844Z,74.05
2018-10-07T02:19:02.556Z,73.79
2018-10-07T02:21:30.903Z,73.80
2018-10-07T02:23:59.135Z,73.85
2018-10-07T02:26:27.303Z,73.70
2018-10-07T02:28:55.499Z,74.44
2018-10-07T02:31:23.652Z,74.00
2018-10-07T02:33:51.802Z,74.14
2018-10-07T02:36:20.038Z,75.11
2018-10-07T02:38:48.250Z,74.83
2018-10-07T02:41:16.537Z,75.21
2018-10-07T02:43:45.380Z,75.49
2018-10-07T02:46:13.589Z,75.42
2018-10-07T02:48:41.748Z,75.26
2018-10-07T02:51:10.162Z,75.56
2018-10-07T02:53:38.720Z,75.37
2018-10-07T02:56:07.248Z,75.59
2018-10-07T02:58:35.666Z,75.69
2018-10-07T03:01:04.065Z,75.33
2018-10-07T03:03:32.335Z,75.65
2018-10-07T03:06:00.797Z,76.07
2018-10-07T03:08:28.986Z,76.14
2018-10-07T03:10:57.112Z,76.47
2018-10-07T03:13:25.336Z,75.82
2018-10-07T03:15:53.529Z,76.12
2018-10-07T03:18:21.799Z,76.50
2018-10-07T03:20:49.999Z,76.33
2018-10-07T03:23:18.237Z,76.90
2018-10-07T03:25:47.052Z,76.85
2018-10-07T03:28:16.005Z,77.37
2018-10-07T03:30:44.367Z,77.43
2018-10-07T03:33:12.573Z,77.61
2018-10-07T03:35:41.491Z,77.93
2018-10-07T03:38:09.620Z,77.78
2018-10-07T03:40:37.802Z,77.90
2018-10-07T03:43:06.058Z,77.58
2018-10-07T03:45:34.227Z,78.10
2018-10-07T03:48:03.129Z,78.30
2018-10-07T03:50:31.362Z,78.58
2018-10-07T03:52:59.600Z,79.20
2018-10-07T03:55:27.781Z,79.66
2018-10-07T03:57:55.924Z,78.87
2018-10-07T04:00:24.040Z,78.45
2018-10-07T04:02:53.128Z,79.07
2018-10-07T04:05:21.424Z,79.21
2018-10-07T04:07:49.726Z,79.47
2018-10-07T04:10:17.896Z,79.14
2018-10-07T04:12:46.124Z,79.36
2018-10-07T04:15:14.409Z,80.10
2018-10-07T04:17:42.631Z,80.11
2018-10-07T04:20:11.030Z,80.43
2018-10-07T04:22:39.171Z,80.13
2018-10-07T04:25:07.536Z,80.28
2018-10-07T04:27:35.884Z,80.84
2018-10-07T04:30:04.270Z,80.66
2018-10-07T04:32:32.449Z,80.68
2018-10-07T04:35:00.713Z,80.02
2018-10-07T04:37:29.036Z,80.15
2018-10-07T04:39:57.332Z,80.79
2018-10-07T04:42:25.679Z,80.48
2018-10-07T04:44:54.847Z,81.23
2018-10-07T04:47:22.959Z,81.08
2018-10-07T04:49:51.089Z,81.08
2018-10-07T04:52:19.253Z,81.24
2018-10-07T04:54:47.530Z,81.04
2018-10-07T04:57:16.345Z,81.50
2018-10-07T04:59:45.200Z,80.59
2018-10-07T05:02:13.431Z,80.80
2018-10-07T05:04:41.891Z,80.16
2018-10-07T05:07:10.803Z,81.02
2018-10-07T05:09:39.099Z,80.36
2018-10-07T05:12:09.013Z,81.40
2018-10-07T05:14:38.949Z,81.14
2018-10-07T05:17:08.365Z,81.01
2018-10-07T05:19:36.607Z,81.06
2018-10-07T05:22:04.840Z,81.50
2018-10-07T05:24:34.100Z,82.00
2018-10-07T05:27:02.517Z,80.67
2018-10-07T05:29:30.733Z,80.40
2018-10-07T05:31:59.149Z,80.75
2018-10-07T05:34:27.413Z,80.29
2018-10-07T05:36:55.615Z,80.91
2018-10-07T05:39:24.543Z,80.22
2018-10-07T05:41:52.911Z,79.65
2018-10-07T05:44:21.163Z,79.40
2018-10-07T05:46:50.115Z,79.30
2018-10-07T05:49:19.207Z,79.01
2018-10-07T05:51:47.314Z,78.73
2018-10-07T05:54:15.521Z,78.60
2018-10-07T05:56:43.964Z,78.04
2018-10-07T05:59:12.285Z,78.64
2018-10-07T06:01:43.135Z,77.84
2018-10-07T06:04:29.108Z,78.03
2018-10-07T06:07:01.500Z,77.80
2018-10-07T06:09:33.517Z,77.35
2018-10-07T06:12:01.808Z,76.38
2018-10-07T06:14:47.310Z,76.08
2018-10-07T06:17:16.340Z,75.81
2018-10-07T06:19:44.658Z,76.10
2018-10-07T06:22:13.548Z,75.57
2018-10-07T06:24:41.865Z,74.63
2018-10-07T06:27:10.360Z,73.69
2018-10-07T06:29:39.752Z,72.72
2018-10-07T06:32:07.970Z,73.40
2018-10-07T06:34:36.246Z,73.08
2018-10-07T06:37:04.752Z,72.41
2018-10-07T06:39:33.032Z,72.41
2018-10-07T06:42:01.248Z,71.92
2018-10-07T06:44:30.097Z,71.42
2018-10-07T06:46:58.323Z,71.08
2018-10-07T06:49:27.208Z,70.60
2018-10-07T06:51:55.428Z,70.12
2018-10-07T06:54:23.606Z,70.08
2018-10-07T06:56:51.923Z,70.67
2018-10-07T06:59:20.070Z,70.58
2018-10-07T07:01:48.437Z,71.52
2018-10-07T07:04:16.675Z,70.30
2018-10-07T07:06:44.863Z,70.69
2018-10-07T07:09:14.338Z,71.40
2018-10-07T07:11:42.577Z,72.18
2018-10-07T07:14:10.769Z,72.23
2018-10-07T07:16:39.607Z,71.93
2018-10-07T07:19:07.805Z,72.12
2018-10-07T07:21:35.912Z,71.84
2018-10-07T07:24:04.321Z,72.85
2018-10-07T07:26:32.733Z,74.20
2018-10-07T07:29:01.591Z,74.00
2018-10-07T07:31:30.154Z,74.94
2018-10-07T07:33:58.122Z,73.81
2018-10-07T07:36:26.329Z,74.52
2018-10-07T07:38:54.561Z,72.63
2018-10-07T07:41:23.050Z,73.29
2018-10-07T07:43:51.459Z,71.79
2018-10-07T07:46:19.725Z,71.78
2018-10-07T07:48:47.972Z,71.39
2018-10-07T07:51:16.191Z,70.71
2018-10-07T07:53:44.488Z,70.91
2018-10-07T07:56:13.260Z,72.15
2018-10-07T07:58:43.429Z,72.54
2018-10-07T08:01:11.631Z,71.95
2018-10-07T08:03:39.905Z,72.30
2018-10-07T08:06:08.085Z,71.64
2018-10-07T08:08:36.409Z,71.23
2018-10-07T08:11:04.554Z,73.41
2018-10-07T08:13:33.422Z,73.01
2018-10-07T08:16:01.642Z,72.60
2018-10-07T08:18:30.013Z,71.81
2018-10-07T08:20:58.196Z,70.60
2018-10-07T08:23:26.673Z,71.96
2018-10-07T08:25:54.812Z,71.40
2018-10-07T08:28:23.081Z,70.30
2018-10-07T08:30:51.403Z,69.03
2018-10-07T08:33:19.566Z,68.68
2018-10-07T08:35:48.730Z,69.04
2018-10-07T08:38:16.935Z,68.56
2018-10-07T08:40:45.862Z,69.81
2018-10-07T08:43:14.202Z,69.04
2018-10-07T08:45:42.647Z,68.78
2018-10-07T08:48:12.192Z,67.17
2018-10-07T08:50:40.650Z,67.18
2018-10-07T08:53:08.902Z,67.85
2018-10-07T08:55:37.125Z,67.50
2018-10-07T08:58:05.540Z,68.92
2018-10-07T09:00:33.691Z,68.49
2018-10-07T09:03:01.997Z,68.30
2018-10-07T09:05:30.283Z,68.01
2018-10-07T09:07:58.633Z,68.03
2018-10-07T09:10:27.949Z,68.42
2018-10-07T09:12:56.232Z,68.53
2018-10-07T09:15:24.541Z,69.29
2018-10-07T09:17:52.893Z,71.56
2018-10-07T09:20:21.338Z,72.83
2018-10-07T09:22:49.925Z,72.76
2018-10-07T09:25:18.229Z,74.08
2018-10-07T09:27:48.044Z,74.49
2018-10-07T09:30:16.280Z,74.80
2018-10-07T09:32:44.640Z,74.36
2018-10-07T09:35:12.799Z,74.70
2018-10-07T09:37:41.013Z,74.06
2018-10-07T09:40:09.244Z,75.37
2018-10-07T09:42:37.425Z,75.46
2018-10-07T09:45:06.080Z,75.11
2018-10-07T09:47:34.485Z,74.71
2018-10-07T09:50:05.023Z,73.89
2018-10-07T09:52:33.240Z,72.18
2018-10-07T09:55:01.946Z,70.86
2018-10-07T09:57:30.230Z,69.94
2018-10-07T10:00:00.640Z,68.46
2018-10-07T10:02:28.775Z,65.85
2018-10-07T10:04:56.909Z,62.89
2018-10-07T10:07:25.205Z,60.34
2018-10-07T10:09:53.423Z,60.51
2018-10-07T10:12:21.709Z,62.31
2018-10-07T10:14:49.841Z,63.61
2018-10-07T10:17:21.033Z,63.19
2018-10-07T10:20:05.517Z,64.08
2018-10-07T10:23:45.736Z,63.59
2018-10-07T10:27:27.854Z,62.69
2018-10-07T10:30:01.975Z,64.26
2018-10-07T10:32:40.815Z,64.43
2018-10-07T10:37:28.153Z,64.15
2018-10-07T10:39:59.961Z,64.17
2018-10-07T10:43:44.666Z,65.28
2018-10-07T10:46:26.524Z,65.18
2018-10-07T10:52:17.104Z,65.17
2018-10-07T10:55:00.469Z,61.82
2018-10-07T10:57:46.022Z,61.17
2018-10-07T11:00:24.574Z,60.96
2018-10-07T11:04:07.274Z,61.37
2018-10-07T11:08:54.185Z,62.53
2018-10-07T11:11:34.893Z,62.74
2018-10-07T11:14:11.807Z,63.04
2018-10-07T11:16:56.823Z,62.65
2018-10-07T11:19:52.309Z,60.81
2018-10-07T11:23:37.590Z,59.62
2018-10-07T11:28:23.892Z,59.10
2018-10-07T11:31:09.231Z,60.90
2018-10-07T11:34:00.045Z,62.00
2018-10-07T11:37:47.044Z,61.21
2018-10-07T11:40:29.183Z,61.59
2018-10-07T11:44:20.008Z,60.41
2018-10-07T11:47:19.571Z,59.30
2018-10-07T11:50:17.547Z,58.76
2018-10-07T11:52:56.170Z,58.75
2018-10-07T11:55:24.294Z,59.45
2018-10-07T11:57:52.536Z,58.91
2018-10-07T12:00:21.013Z,59.46
2018-10-07T12:02:50.153Z,59.50
2018-10-07T12:05:18.507Z,60.47
2018-10-07T12:07:48.405Z,61.23
2018-10-07T12:10:17.366Z,62.53
2018-10-07T12:12:45.891Z,62.75
2018-10-07T12:15:14.227Z,62.88
2018-10-07T12:17:42.454Z,62.39
2018-10-07T12:20:10.811Z,61.38
2018-10-07T12:22:39.905Z,60.84
2018-10-07T12:25:08.892Z,59.94
2018-10-07T12:27:37.330Z,58.35
2018-10-07T12:30:05.918Z,57.57
2018-10-07T12:32:34.902Z,56.22
2018-10-07T12:35:03.263Z,54.74
2018-10-07T12:37:31.626Z,52.94
2018-10-07T12:39:59.992Z,51.74
2018-10-07T12:42:28.722Z,52.99
2018-10-07T12:44:57.572Z,52.99
2018-10-07T12:47:26.164Z,53.75
2018-10-07T12:49:54.517Z,55.13
2018-10-07T12:52:22.939Z,55.03
2018-10-07T12:54:52.098Z,56.83
2018-10-07T12:57:20.460Z,57.79
2018-10-07T12:59:49.096Z,58.24
2018-10-07T13:02:17.507Z,58.21
2018-10-07T13:04:45.692Z,58.82
2018-10-07T13:07:16.015Z,60.73
2018-10-07T13:09:45.401Z,61.15
2018-10-07T13:12:13.507Z,61.47
2018-10-07T13:14:41.823Z,62.60
2018-10-07T13:17:13.468Z,62.69
2018-10-07T13:19:41.754Z,63.01
2018-10-07T13:22:10.001Z,64.52
2018-10-07T13:24:38.136Z,63.90
2018-10-07T13:27:06.396Z,64.26
2018-10-07T13:29:34.632Z,63.51
2018-10-07T13:32:02.779Z,64.49
2018-10-07T13:34:31.018Z,64.72
2018-10-07T13:36:59.416Z,64.01
2018-10-07T13:39:28.345Z,64.00
2018-10-07T13:41:56.493Z,63.78
2018-10-07T13:44:24.677Z,63.07
2018-10-07T13:46:52.903Z,62.79
2018-10-07T13:49:21.063Z,62.26
2018-10-07T13:51:49.251Z,62.49
2018-10-07T13:54:17.404Z,62.02
2018-10-07T13:56:45.545Z,61.96
2018-10-07T13:59:13.756Z,61.46
2018-10-07T14:01:41.952Z,61.94
2018-10-07T14:04:10.088Z,62.36
2018-10-07T14:06:38.328Z,61.79
2018-10-07T14:09:07.895Z,61.29
2018-10-07T14:11:36.122Z,60.86
2018-10-07T14:14:04.207Z,60.83
2018-10-07T14:16:32.488Z,60.85
2018-10-07T14:19:00.615Z,59.91
2018-10-07T14:21:29.020Z,60.13
2018-10-07T14:23:57.185Z,59.42
2018-10-07T14:26:25.349Z,60.32
2018-10-07T14:28:53.615Z,59.76
2018-10-07T14:31:21.769Z,59.69
2018-10-07T14:33:50.920Z,60.34
2018-10-07T14:36:19.051Z,60.80
2018-10-07T14:38:48.061Z,60.58
2018-10-07T14:41:16.193Z,60.43
2018-10-07T14:43:44.530Z,61.01
2018-10-07T14:46:12.897Z,60.63
2018-10-07T14:48:41.235Z,59.96
2018-10-07T14:51:09.518Z,60.66
2018-10-07T14:53:38.885Z,59.87
2018-10-07T14:56:07.252Z,60.23
2018-10-07T14:58:36.165Z,60.77
2018-10-07T15:01:04.481Z,60.69
2018-10-07T15:03:32.646Z,60.89
2018-10-07T15:06:00.874Z,62.10
2018-10-07T15:08:29.114Z,62.65
2018-10-07T15:10:57.279Z,62.03
2018-10-07T15:13:27.214Z,61.41
2018-10-07T15:15:55.366Z,61.53
2018-10-07T15:18:23.513Z,60.39
2018-10-07T15:20:51.756Z,60.40
2018-10-07T15:23:19.989Z,60.16
2018-10-07T15:25:48.248Z,58.29
2018-10-07T15:28:16.582Z,58.91
2018-10-07T15:30:44.873Z,58.63
2018-10-07T15:33:13.131Z,58.85
2018-10-07T15:35:41.518Z,58.59
2018-10-07T15:38:09.739Z,58.54
2018-10-07T15:40:37.916Z,57.56
2018-10-07T15:43:06.908Z,58.24
2018-10-07T15:45:35.158Z,57.86
2018-10-07T15:48:03.366Z,58.02
2018-10-07T15:50:32.593Z,58.15
2018-10-07T15:53:00.758Z,58.42
2018-10-07T15:55:28.889Z,58.61
2018-10-07T15:57:57.061Z,58.57
2018-10-07T16:00:25.329Z,57.86
2018-10-07T16:02:53.447Z,58.07
2018-10-07T16:05:21.617Z,58.23
2018-10-07T16:07:49.773Z,58.31
2018-10-07T16:10:18.116Z,58.66
2018-10-07T16:12:46.555Z,59.37
2018-10-07T16:15:14.643Z,59.59
2018-10-07T16:17:42.853Z,59.35
2018-10-07T16:20:11.055Z,58.59
2018-10-07T16:22:39.255Z,59.25
2018-10-07T16:25:08.431Z,59.28
2018-10-07T16:27:36.720Z,59.04
2018-10-07T16:30:05.134Z,59.22
2018-10-07T16:32:33.565Z,59.53
2018-10-07T16:35:01.810Z,58.84
2018-10-07T16:37:29.936Z,58.70
2018-10-07T16:39:58.781Z,59.22
2018-10-07T16:42:26.997Z,58.62
2018-10-07T16:44:55.299Z,59.13
2018-10-07T16:47:23.601Z,58.62
2018-10-07T16:49:51.817Z,58.41
2018-10-07T16:52:19.948Z,59.10
2018-10-07T16:54:48.312Z,59.11
2018-10-07T16:57:16.531Z,59.45
2018-10-07T16:59:44.813Z,59.58
2018-10-07T17:02:13.098Z,59.08
2018-10-07T17:04:41.330Z,59.27
2018-10-07T17:07:09.530Z,59.28
2018-10-07T17:09:38.422Z,60.09
2018-10-07T17:12:06.807Z,60.19
2018-10-07T17:14:35.988Z,59.75
2018-10-07T17:17:04.172Z,60.24
2018-10-07T17:19:32.293Z,60.07
2018-10-07T17:22:00.471Z,59.73
2018-10-07T17:24:28.582Z,58.65
2018-10-07T17:27:04.612Z,58.55
2018-10-07T17:29:33.396Z,58.88
2018-10-07T17:32:01.613Z,59.14
2018-10-07T17:34:29.760Z,59.93
2018-10-07T17:36:57.902Z,58.62
2018-10-07T17:39:26.113Z,58.77
2018-10-07T17:41:54.353Z,58.23
2018-10-07T17:44:29.376Z,58.72
2018-10-07T17:46:57.566Z,58.55
2018-10-07T17:49:26.518Z,58.41
2018-10-07T17:51:54.804Z,57.99
2018-10-07T17:54:23.072Z,58.85
2018-10-07T17:56:51.206Z,58.55
2018-10-07T17:59:20.286Z,58.61
2018-10-07T18:01:49.274Z,58.68
2018-10-07T18:04:17.368Z,58.56
2018-10-07T18:06:45.594Z,57.87
2018-10-07T18:09:13.882Z,57.64
2018-10-07T18:11:42.093Z,58.44
2018-10-07T18:14:10.355Z,59.11
2018-10-07T18:16:38.569Z,58.81
2018-10-07T18:19:06.768Z,58.83
2018-10-07T18:21:35.085Z,58.54
2018-10-07T18:24:03.341Z,59.02
2018-10-07T18:26:32.041Z,58.73
2018-10-07T18:29:00.426Z,59.37
2018-10-07T18:31:28.687Z,59.60
2018-10-07T18:33:57.251Z,59.52
2018-10-07T18:36:25.667Z,59.96
2018-10-07T18:38:54.138Z,60.95
2018-10-07T18:41:22.385Z,60.89
2018-10-07T18:43:50.615Z,60.96
2018-10-07T18:46:18.766Z,61.97
2018-10-07T18:48:47.669Z,62.20
2018-10-07T18:51:15.723Z,61.93
2018-10-07T18:53:43.936Z,62.26
2018-10-07T18:56:12.132Z,62.26
2018-10-07T18:58:40.338Z,63.34
2018-10-07T19:01:08.687Z,63.17
2018-10-07T19:03:36.854Z,63.72
2018-10-07T19:06:05.038Z,64.11
2018-10-07T19:08:33.355Z,63.92
2018-10-07T19:11:01.562Z,63.69
2018-10-07T19:13:29.765Z,64.50
2018-10-07T19:15:57.939Z,64.51
2018-10-07T19:18:26.021Z,64.66
2018-10-07T19:20:54.293Z,64.87
2018-10-07T19:23:22.482Z,65.06
2018-10-07T19:25:50.846Z,65.34
2018-10-07T19:28:19.035Z,65.46
2018-10-07T19:30:47.262Z,65.97
2018-10-07T19:33:15.445Z,65.79
2018-10-07T19:35:43.614Z,66.23
2018-10-07T19:38:12.078Z,66.43
2018-10-07T19:40:40.296Z,66.74
2018-10-07T19:43:08.657Z,67.17
2018-10-07T19:45:36.901Z,66.65
2018-10-07T19:48:05.143Z,66.67
2018-10-07T19:50:33.357Z,66.68
2018-10-07T19:53:01.587Z,66.96
2018-10-07T19:55:29.776Z,67.47
2018-10-07T19:57:58.065Z,67.76
2018-10-07T20:00:26.959Z,67.06
2018-10-07T20:02:56.073Z,68.37
2018-10-07T20:05:24.279Z,68.06
2018-10-07T20:07:52.387Z,68.41
2018-10-07T20:10:20.814Z,68.68
2018-10-07T20:12:49.051Z,69.23
2018-10-07T20:15:17.460Z,68.97
2018-10-07T20:17:45.527Z,69.11
2018-10-07T20:20:13.819Z,68.91
2018-10-07T20:22:42.012Z,68.31
2018-10-07T20:25:10.182Z,69.46
2018-10-07T20:27:38.270Z,68.65
2018-10-07T20:30:06.797Z,69.43
2018-10-07T20:32:35.002Z,69.13
2018-10-07T20:35:03.331Z,69.18
2018-10-07T20:37:31.529Z,69.49
2018-10-07T20:40:01.414Z,69.81
2018-10-07T20:42:29.678Z,70.62
2018-10-07T20:44:58.047Z,70.92
2018-10-07T20:47:26.400Z,70.70
2018-10-07T20:49:54.816Z,71.56
2018-10-07T20:52:22.997Z,71.41
2018-10-07T20:54:51.213Z,71.97
2018-10-07T20:57:19.477Z,72.01
2018-10-07T20:59:47.656Z,71.91
2018-10-07T21:02:15.818Z,72.20
2018-10-07T21:04:44.708Z,73.30
2018-10-07T21:07:12.966Z,72.89
2018-10-07T21:09:41.085Z,72.99
2018-10-07T21:12:09.932Z,74.01
2018-10-07T21:14:38.130Z,74.00
2018-10-07T21:17:07.181Z,74.57
2018-10-07T21:19:36.074Z,75.34
2018-10-07T21:22:04.328Z,75.67
2018-10-07T21:24:32.590Z,75.12
2018-10-07T21:27:00.788Z,75.24
2018-10-07T21:29:29.080Z,75.12
2018-10-07T21:31:57.893Z,74.73
2018-10-07T21:34:26.100Z,75.08
2018-10-07T21:36:57.695Z,75.55
2018-10-07T21:39:26.088Z,75.30
2018-10-07T21:41:54.258Z,75.62
2018-10-07T21:44:22.580Z,74.92
2018-10-07T21:46:51.022Z,75.95
2018-10-07T21:49:19.122Z,75.54
2018-10-07T21:51:47.906Z,75.33
2018-10-07T21:54:16.330Z,75.40
2018-10-07T21:56:44.568Z,75.02
2018-10-07T21:59:13.656Z,74.25
2018-10-07T22:01:43.229Z,74.47
2018-10-07T22:04:11.860Z,75.27
2018-10-07T22:06:40.181Z,75.25
2018-10-07T22:09:09.707Z,75.83
2018-10-07T22:11:39.472Z,75.80
2018-10-07T22:14:08.953Z,75.92
2018-10-07T22:16:38.210Z,76.30
2018-10-07T22:19:06.581Z,76.26
2018-10-07T22:21:34.718Z,75.96
2018-10-07T22:24:02.976Z,76.36
2018-10-07T22:26:32.181Z,77.12
2018-10-07T22:29:00.644Z,76.63
2018-10-07T22:31:28.988Z,76.34
2018-10-07T22:33:57.814Z,76.39
2018-10-07T22:36:25.921Z,76.61
2018-10-07T22:38:54.227Z,76.46
2018-10-07T22:41:22.596Z,76.22
2018-10-07T22:43:52.208Z,76.76
2018-10-07T22:46:20.785Z,76.36
2018-10-07T22:48:49.167Z,76.89
2018-10-07T22:51:17.450Z,76.92
2018-10-07T22:53:46.311Z,76.99
2018-10-07T22:56:14.600Z,76.38
2018-10-07T22:58:42.919Z,76.83
2018-10-07T23:01:11.230Z,77.03
2018-10-07T23:03:39.533Z,76.38
2018-10-07T23:06:07.812Z,77.06
2018-10-07T23:08:36.127Z,75.99
2018-10-07T23:11:04.301Z,76.32
2018-10-07T23:13:32.523Z,76.65
2018-10-07T23:16:00.746Z,76.52
2018-10-07T23:18:29.642Z,76.27
2018-10-07T23:20:57.835Z,76.32
2018-10-07T23:23:26.086Z,76.96
2018-10-07T23:25:55.119Z,76.62
2018-10-07T23:28:23.431Z,77.48
2018-10-07T23:30:51.555Z,77.09
2018-10-07T23:33:19.708Z,77.78
2018-10-07T23:35:48.112Z,76.89
2018-10-07T23:38:16.432Z,77.19
2018-10-07T23:40:47.146Z,77.66
2018-10-07T23:43:16.059Z,77.25
2018-10-07T23:45:44.344Z,77.29
2018-10-07T23:48:13.196Z,75.96
2018-10-07T23:50:41.908Z,77.17
2018-10-07T23:53:10.273Z,77.16
2018-10-07T23:55:38.979Z,77.71
2018-10-07T23:58:07.236Z,78.35
